sensor_id;sensor_type;location;lat;lon;timestamp;P1;durP1;ratioP1;P2;durP2;ratioP2
8353;SDS011;4656;48.090;11.498;2023-05-29T00:01:53;8.50;;;5.90;;
8353;SDS011;4656;48.090;11.498;2023-05-29T00:03:57;10.15;;;5.80;;
8353;SDS011;4656;48.090;11.498;2023-05-29T00:06:01;10.20;;;6.00;;
8353;SDS011;4656;48.090;11.498;2023-05-29T00:08:04;10.37;;;6.30;;
8353;SDS011;4656;48.090;11.498;2023-05-29T00:10:08;9.85;;;5.90;;
8353;SDS011;4656;48.090;11.498;2023-05-29T00:12:10;9.38;;;5.78;;
8353;SDS011;4656;48.090;11.498;2023-05-29T00:14:12;9.90;;;6.18;;
8353;SDS011;4656;48.090;11.498;2023-05-29T00:16:15;6.43;;;5.40;;
8353;SDS011;4656;48.090;11.498;2023-05-29T00:18:17;10.77;;;6.13;;
8353;SDS011;4656;48.090;11.498;2023-05-29T00:20:19;9.25;;;5.95;;
8353;SDS011;4656;48.090;11.498;2023-05-29T00:22:22;10.13;;;5.95;;
8353;SDS011;4656;48.090;11.498;2023-05-29T00:24:25;10.23;;;6.22;;
8353;SDS011;4656;48.090;11.498;2023-05-29T00:26:27;10.15;;;5.93;;
8353;SDS011;4656;48.090;11.498;2023-05-29T00:28:29;10.32;;;6.32;;
8353;SDS011;4656;48.090;11.498;2023-05-29T00:30:32;11.40;;;6.10;;
8353;SDS011;4656;48.090;11.498;2023-05-29T00:32:34;10.60;;;6.43;;
8353;SDS011;4656;48.090;11.498;2023-05-29T00:34:36;10.90;;;6.25;;
8353;SDS011;4656;48.090;11.498;2023-05-29T00:36:38;9.95;;;6.20;;
8353;SDS011;4656;48.090;11.498;2023-05-29T00:38:40;9.97;;;6.07;;
8353;SDS011;4656;48.090;11.498;2023-05-29T00:40:43;10.68;;;6.22;;
8353;SDS011;4656;48.090;11.498;2023-05-29T00:42:45;9.70;;;5.70;;
8353;SDS011;4656;48.090;11.498;2023-05-29T00:44:48;10.25;;;6.13;;
8353;SDS011;4656;48.090;11.498;2023-05-29T00:46:52;9.68;;;6.50;;
8353;SDS011;4656;48.090;11.498;2023-05-29T00:48:54;9.43;;;5.82;;
8353;SDS011;4656;48.090;11.498;2023-05-29T00:50:57;10.60;;;5.95;;
8353;SDS011;4656;48.090;11.498;2023-05-29T00:53:00;8.73;;;6.07;;
8353;SDS011;4656;48.090;11.498;2023-05-29T00:55:04;12.02;;;6.35;;
8353;SDS011;4656;48.090;11.498;2023-05-29T00:57:07;9.40;;;6.28;;
8353;SDS011;4656;48.090;11.498;2023-05-29T00:59:09;10.23;;;6.32;;
8353;SDS011;4656;48.090;11.498;2023-05-29T01:01:12;9.98;;;6.22;;
8353;SDS011;4656;48.090;11.498;2023-05-29T01:03:14;10.07;;;6.10;;
8353;SDS011;4656;48.090;11.498;2023-05-29T01:05:17;9.57;;;6.65;;
8353;SDS011;4656;48.090;11.498;2023-05-29T01:07:24;8.93;;;6.13;;
8353;SDS011;4656;48.090;11.498;2023-05-29T01:09:26;8.95;;;6.18;;
8353;SDS011;4656;48.090;11.498;2023-05-29T01:11:31;9.77;;;6.10;;
8353;SDS011;4656;48.090;11.498;2023-05-29T01:13:42;9.32;;;6.50;;
8353;SDS011;4656;48.090;11.498;2023-05-29T01:15:47;10.82;;;6.53;;
8353;SDS011;4656;48.090;11.498;2023-05-29T01:20:20;9.55;;;6.18;;
8353;SDS011;4656;48.090;11.498;2023-05-29T01:22:31;10.50;;;6.57;;
8353;SDS011;4656;48.090;11.498;2023-05-29T01:24:37;11.63;;;6.43;;
8353;SDS011;4656;48.090;11.498;2023-05-29T01:26:46;11.90;;;6.40;;
8353;SDS011;4656;48.090;11.498;2023-05-29T01:28:51;10.48;;;6.18;;
8353;SDS011;4656;48.090;11.498;2023-05-29T01:30:54;8.68;;;6.13;;
8353;SDS011;4656;48.090;11.498;2023-05-29T01:32:59;8.32;;;6.15;;
8353;SDS011;4656;48.090;11.498;2023-05-29T01:35:02;9.50;;;6.63;;
8353;SDS011;4656;48.090;11.498;2023-05-29T01:37:07;13.00;;;6.20;;
8353;SDS011;4656;48.090;11.498;2023-05-29T01:39:09;9.32;;;6.28;;
8353;SDS011;4656;48.090;11.498;2023-05-29T01:41:11;9.95;;;6.53;;
8353;SDS011;4656;48.090;11.498;2023-05-29T01:43:15;10.55;;;6.20;;
8353;SDS011;4656;48.090;11.498;2023-05-29T01:45:17;10.40;;;6.80;;
8353;SDS011;4656;48.090;11.498;2023-05-29T01:47:19;9.20;;;6.18;;
8353;SDS011;4656;48.090;11.498;2023-05-29T01:49:22;10.82;;;6.55;;
8353;SDS011;4656;48.090;11.498;2023-05-29T01:51:25;11.30;;;6.28;;
8353;SDS011;4656;48.090;11.498;2023-05-29T01:53:27;9.82;;;6.15;;
8353;SDS011;4656;48.090;11.498;2023-05-29T01:55:29;10.40;;;6.90;;
8353;SDS011;4656;48.090;11.498;2023-05-29T01:57:32;10.25;;;6.57;;
8353;SDS011;4656;48.090;11.498;2023-05-29T01:59:36;10.98;;;6.90;;
8353;SDS011;4656;48.090;11.498;2023-05-29T02:01:41;8.77;;;6.40;;
8353;SDS011;4656;48.090;11.498;2023-05-29T02:03:46;10.65;;;6.40;;
8353;SDS011;4656;48.090;11.498;2023-05-29T02:05:48;10.15;;;6.53;;
8353;SDS011;4656;48.090;11.498;2023-05-29T02:07:50;9.82;;;6.40;;
8353;SDS011;4656;48.090;11.498;2023-05-29T02:09:52;9.90;;;6.20;;
8353;SDS011;4656;48.090;11.498;2023-05-29T02:11:54;10.38;;;6.82;;
8353;SDS011;4656;48.090;11.498;2023-05-29T02:13:56;9.97;;;6.73;;
8353;SDS011;4656;48.090;11.498;2023-05-29T02:16:03;11.13;;;6.80;;
8353;SDS011;4656;48.090;11.498;2023-05-29T02:18:05;12.32;;;6.65;;
8353;SDS011;4656;48.090;11.498;2023-05-29T02:20:08;10.73;;;6.45;;
8353;SDS011;4656;48.090;11.498;2023-05-29T02:22:11;10.57;;;6.57;;
8353;SDS011;4656;48.090;11.498;2023-05-29T02:24:14;11.57;;;6.50;;
8353;SDS011;4656;48.090;11.498;2023-05-29T02:26:19;11.55;;;6.55;;
8353;SDS011;4656;48.090;11.498;2023-05-29T02:28:21;11.48;;;6.90;;
8353;SDS011;4656;48.090;11.498;2023-05-29T02:30:23;11.15;;;6.90;;
8353;SDS011;4656;48.090;11.498;2023-05-29T02:32:26;11.00;;;6.90;;
8353;SDS011;4656;48.090;11.498;2023-05-29T02:34:29;11.73;;;6.70;;
8353;SDS011;4656;48.090;11.498;2023-05-29T02:36:33;11.98;;;6.97;;
8353;SDS011;4656;48.090;11.498;2023-05-29T02:38:37;10.60;;;6.43;;
8353;SDS011;4656;48.090;11.498;2023-05-29T02:40:39;9.65;;;6.03;;
8353;SDS011;4656;48.090;11.498;2023-05-29T02:42:41;10.73;;;6.32;;
8353;SDS011;4656;48.090;11.498;2023-05-29T02:44:44;10.32;;;6.95;;
8353;SDS011;4656;48.090;11.498;2023-05-29T02:46:46;10.80;;;6.53;;
8353;SDS011;4656;48.090;11.498;2023-05-29T02:48:49;9.48;;;6.50;;
8353;SDS011;4656;48.090;11.498;2023-05-29T02:50:51;12.52;;;7.20;;
8353;SDS011;4656;48.090;11.498;2023-05-29T02:52:53;12.10;;;6.82;;
8353;SDS011;4656;48.090;11.498;2023-05-29T02:54:55;13.40;;;7.03;;
8353;SDS011;4656;48.090;11.498;2023-05-29T02:56:58;9.48;;;6.50;;
8353;SDS011;4656;48.090;11.498;2023-05-29T02:59:02;13.65;;;7.40;;
8353;SDS011;4656;48.090;11.498;2023-05-29T03:01:04;10.60;;;6.55;;
8353;SDS011;4656;48.090;11.498;2023-05-29T03:03:06;13.13;;;7.10;;
8353;SDS011;4656;48.090;11.498;2023-05-29T03:05:10;10.07;;;6.90;;
8353;SDS011;4656;48.090;11.498;2023-05-29T03:07:13;11.88;;;6.93;;
8353;SDS011;4656;48.090;11.498;2023-05-29T03:09:16;10.88;;;6.80;;
8353;SDS011;4656;48.090;11.498;2023-05-29T03:11:18;10.10;;;6.50;;
8353;SDS011;4656;48.090;11.498;2023-05-29T03:13:23;11.57;;;6.63;;
8353;SDS011;4656;48.090;11.498;2023-05-29T03:15:25;11.60;;;6.88;;
8353;SDS011;4656;48.090;11.498;2023-05-29T03:17:27;9.95;;;6.68;;
8353;SDS011;4656;48.090;11.498;2023-05-29T03:19:29;12.25;;;6.75;;
8353;SDS011;4656;48.090;11.498;2023-05-29T03:21:33;12.88;;;7.25;;
8353;SDS011;4656;48.090;11.498;2023-05-29T03:23:35;9.95;;;6.28;;
8353;SDS011;4656;48.090;11.498;2023-05-29T03:25:38;11.80;;;7.20;;
8353;SDS011;4656;48.090;11.498;2023-05-29T03:27:40;10.20;;;6.38;;
8353;SDS011;4656;48.090;11.498;2023-05-29T03:29:42;9.93;;;6.47;;
8353;SDS011;4656;48.090;11.498;2023-05-29T03:31:44;13.77;;;6.55;;
8353;SDS011;4656;48.090;11.498;2023-05-29T03:33:46;12.10;;;6.25;;
8353;SDS011;4656;48.090;11.498;2023-05-29T03:35:48;10.32;;;6.10;;
8353;SDS011;4656;48.090;11.498;2023-05-29T03:37:52;11.30;;;6.82;;
8353;SDS011;4656;48.090;11.498;2023-05-29T03:39:55;10.95;;;6.60;;
8353;SDS011;4656;48.090;11.498;2023-05-29T03:41:59;12.57;;;6.40;;
8353;SDS011;4656;48.090;11.498;2023-05-29T03:44:03;8.73;;;6.15;;
8353;SDS011;4656;48.090;11.498;2023-05-29T03:46:07;11.07;;;6.45;;
8353;SDS011;4656;48.090;11.498;2023-05-29T03:48:10;9.27;;;6.47;;
8353;SDS011;4656;48.090;11.498;2023-05-29T03:50:12;9.20;;;6.38;;
8353;SDS011;4656;48.090;11.498;2023-05-29T03:52:15;10.37;;;6.07;;
8353;SDS011;4656;48.090;11.498;2023-05-29T03:54:18;9.95;;;6.60;;
8353;SDS011;4656;48.090;11.498;2023-05-29T03:56:20;10.32;;;6.50;;
8353;SDS011;4656;48.090;11.498;2023-05-29T03:58:22;8.45;;;5.72;;
8353;SDS011;4656;48.090;11.498;2023-05-29T04:00:25;8.00;;;5.00;;
8353;SDS011;4656;48.090;11.498;2023-05-29T04:02:27;7.43;;;5.13;;
8353;SDS011;4656;48.090;11.498;2023-05-29T04:04:29;8.77;;;5.28;;
8353;SDS011;4656;48.090;11.498;2023-05-29T04:06:31;7.28;;;5.20;;
8353;SDS011;4656;48.090;11.498;2023-05-29T04:08:33;7.50;;;5.00;;
8353;SDS011;4656;48.090;11.498;2023-05-29T04:10:37;7.63;;;4.80;;
8353;SDS011;4656;48.090;11.498;2023-05-29T04:12:39;6.35;;;4.70;;
8353;SDS011;4656;48.090;11.498;2023-05-29T04:14:41;6.22;;;4.80;;
8353;SDS011;4656;48.090;11.498;2023-05-29T04:16:43;7.70;;;4.88;;
8353;SDS011;4656;48.090;11.498;2023-05-29T04:18:45;5.90;;;4.72;;
8353;SDS011;4656;48.090;11.498;2023-05-29T04:20:47;7.60;;;5.00;;
8353;SDS011;4656;48.090;11.498;2023-05-29T04:22:49;6.68;;;4.57;;
8353;SDS011;4656;48.090;11.498;2023-05-29T04:24:52;6.72;;;4.25;;
8353;SDS011;4656;48.090;11.498;2023-05-29T04:26:55;6.97;;;4.80;;
8353;SDS011;4656;48.090;11.498;2023-05-29T04:29:00;7.82;;;5.03;;
8353;SDS011;4656;48.090;11.498;2023-05-29T04:31:03;6.40;;;4.75;;
8353;SDS011;4656;48.090;11.498;2023-05-29T04:33:06;6.97;;;4.65;;
8353;SDS011;4656;48.090;11.498;2023-05-29T04:35:09;7.15;;;4.32;;
8353;SDS011;4656;48.090;11.498;2023-05-29T04:37:11;5.53;;;4.15;;
8353;SDS011;4656;48.090;11.498;2023-05-29T04:39:14;6.78;;;4.57;;
8353;SDS011;4656;48.090;11.498;2023-05-29T04:41:16;5.55;;;4.30;;
8353;SDS011;4656;48.090;11.498;2023-05-29T04:43:19;6.35;;;4.40;;
8353;SDS011;4656;48.090;11.498;2023-05-29T04:45:23;5.55;;;4.22;;
8353;SDS011;4656;48.090;11.498;2023-05-29T04:47:25;10.25;;;4.78;;
8353;SDS011;4656;48.090;11.498;2023-05-29T04:49:27;8.05;;;4.00;;
8353;SDS011;4656;48.090;11.498;2023-05-29T04:51:29;7.70;;;4.27;;
8353;SDS011;4656;48.090;11.498;2023-05-29T04:53:32;5.43;;;4.30;;
8353;SDS011;4656;48.090;11.498;2023-05-29T04:55:34;5.32;;;4.22;;
8353;SDS011;4656;48.090;11.498;2023-05-29T04:57:36;5.77;;;4.60;;
8353;SDS011;4656;48.090;11.498;2023-05-29T04:59:43;5.60;;;4.20;;
8353;SDS011;4656;48.090;11.498;2023-05-29T05:01:45;5.85;;;4.00;;
8353;SDS011;4656;48.090;11.498;2023-05-29T05:03:48;6.68;;;4.35;;
8353;SDS011;4656;48.090;11.498;2023-05-29T05:05:50;5.63;;;4.17;;
8353;SDS011;4656;48.090;11.498;2023-05-29T05:07:52;7.43;;;4.40;;
8353;SDS011;4656;48.090;11.498;2023-05-29T05:09:58;6.20;;;4.20;;
8353;SDS011;4656;48.090;11.498;2023-05-29T05:12:04;5.68;;;4.15;;
8353;SDS011;4656;48.090;11.498;2023-05-29T05:14:07;6.68;;;4.47;;
8353;SDS011;4656;48.090;11.498;2023-05-29T05:16:10;6.15;;;4.53;;
8353;SDS011;4656;48.090;11.498;2023-05-29T05:18:13;5.85;;;4.40;;
8353;SDS011;4656;48.090;11.498;2023-05-29T05:20:15;6.43;;;4.70;;
8353;SDS011;4656;48.090;11.498;2023-05-29T05:22:17;6.10;;;4.63;;
8353;SDS011;4656;48.090;11.498;2023-05-29T05:24:19;7.22;;;4.72;;
8353;SDS011;4656;48.090;11.498;2023-05-29T05:26:21;5.80;;;4.25;;
8353;SDS011;4656;48.090;11.498;2023-05-29T05:28:23;8.02;;;4.85;;
8353;SDS011;4656;48.090;11.498;2023-05-29T05:30:27;6.70;;;4.85;;
8353;SDS011;4656;48.090;11.498;2023-05-29T05:32:31;8.15;;;4.95;;
8353;SDS011;4656;48.090;11.498;2023-05-29T05:34:33;6.07;;;4.80;;
8353;SDS011;4656;48.090;11.498;2023-05-29T05:36:35;7.47;;;5.28;;
8353;SDS011;4656;48.090;11.498;2023-05-29T05:38:39;8.57;;;5.45;;
8353;SDS011;4656;48.090;11.498;2023-05-29T05:40:42;8.35;;;5.10;;
8353;SDS011;4656;48.090;11.498;2023-05-29T05:42:45;7.05;;;5.07;;
8353;SDS011;4656;48.090;11.498;2023-05-29T05:44:47;6.82;;;5.00;;
8353;SDS011;4656;48.090;11.498;2023-05-29T05:46:49;6.68;;;5.05;;
8353;SDS011;4656;48.090;11.498;2023-05-29T05:48:53;7.95;;;5.40;;
8353;SDS011;4656;48.090;11.498;2023-05-29T05:50:57;7.70;;;5.30;;
8353;SDS011;4656;48.090;11.498;2023-05-29T05:52:59;6.87;;;5.20;;
8353;SDS011;4656;48.090;11.498;2023-05-29T05:55:01;8.25;;;5.38;;
8353;SDS011;4656;48.090;11.498;2023-05-29T05:57:06;7.85;;;6.00;;
8353;SDS011;4656;48.090;11.498;2023-05-29T05:59:08;8.77;;;5.22;;
8353;SDS011;4656;48.090;11.498;2023-05-29T06:01:10;6.60;;;5.35;;
8353;SDS011;4656;48.090;11.498;2023-05-29T06:03:12;7.72;;;5.40;;
8353;SDS011;4656;48.090;11.498;2023-05-29T06:05:16;8.03;;;5.33;;
8353;SDS011;4656;48.090;11.498;2023-05-29T06:07:19;7.82;;;5.60;;
8353;SDS011;4656;48.090;11.498;2023-05-29T06:09:21;8.02;;;4.93;;
8353;SDS011;4656;48.090;11.498;2023-05-29T06:11:23;9.13;;;5.60;;
8353;SDS011;4656;48.090;11.498;2023-05-29T06:13:26;9.23;;;5.25;;
8353;SDS011;4656;48.090;11.498;2023-05-29T06:15:29;7.78;;;5.30;;
8353;SDS011;4656;48.090;11.498;2023-05-29T06:17:31;6.55;;;5.07;;
8353;SDS011;4656;48.090;11.498;2023-05-29T06:19:36;7.00;;;4.70;;
8353;SDS011;4656;48.090;11.498;2023-05-29T06:21:40;6.43;;;4.50;;
8353;SDS011;4656;48.090;11.498;2023-05-29T06:23:42;6.20;;;4.75;;
8353;SDS011;4656;48.090;11.498;2023-05-29T06:25:44;10.48;;;4.90;;
8353;SDS011;4656;48.090;11.498;2023-05-29T06:27:47;7.85;;;4.75;;
8353;SDS011;4656;48.090;11.498;2023-05-29T06:29:49;5.25;;;4.63;;
8353;SDS011;4656;48.090;11.498;2023-05-29T06:31:51;7.13;;;4.72;;
8353;SDS011;4656;48.090;11.498;2023-05-29T06:33:53;7.95;;;4.55;;
8353;SDS011;4656;48.090;11.498;2023-05-29T06:35:57;6.93;;;4.53;;
8353;SDS011;4656;48.090;11.498;2023-05-29T06:38:00;6.30;;;4.72;;
8353;SDS011;4656;48.090;11.498;2023-05-29T06:40:02;5.93;;;4.38;;
8353;SDS011;4656;48.090;11.498;2023-05-29T06:42:05;6.15;;;5.13;;
8353;SDS011;4656;48.090;11.498;2023-05-29T06:44:08;6.47;;;4.28;;
8353;SDS011;4656;48.090;11.498;2023-05-29T06:46:10;6.17;;;4.67;;
8353;SDS011;4656;48.090;11.498;2023-05-29T06:48:12;7.53;;;4.68;;
8353;SDS011;4656;48.090;11.498;2023-05-29T06:50:17;8.25;;;4.20;;
8353;SDS011;4656;48.090;11.498;2023-05-29T06:52:19;5.93;;;3.97;;
8353;SDS011;4656;48.090;11.498;2023-05-29T06:54:23;5.90;;;4.13;;
8353;SDS011;4656;48.090;11.498;2023-05-29T06:56:25;5.47;;;3.97;;
8353;SDS011;4656;48.090;11.498;2023-05-29T06:58:27;7.43;;;4.20;;
8353;SDS011;4656;48.090;11.498;2023-05-29T07:00:29;6.43;;;4.07;;
8353;SDS011;4656;48.090;11.498;2023-05-29T07:02:32;4.80;;;3.70;;
8353;SDS011;4656;48.090;11.498;2023-05-29T07:04:34;4.95;;;3.78;;
8353;SDS011;4656;48.090;11.498;2023-05-29T07:06:36;4.90;;;4.00;;
8353;SDS011;4656;48.090;11.498;2023-05-29T07:08:38;4.90;;;3.83;;
8353;SDS011;4656;48.090;11.498;2023-05-29T07:10:42;6.40;;;4.00;;
8353;SDS011;4656;48.090;11.498;2023-05-29T07:12:44;6.47;;;4.03;;
8353;SDS011;4656;48.090;11.498;2023-05-29T07:14:46;5.65;;;4.22;;
8353;SDS011;4656;48.090;11.498;2023-05-29T07:16:49;5.97;;;4.35;;
8353;SDS011;4656;48.090;11.498;2023-05-29T07:18:53;6.40;;;4.33;;
8353;SDS011;4656;48.090;11.498;2023-05-29T07:20:59;4.93;;;4.10;;
8353;SDS011;4656;48.090;11.498;2023-05-29T07:23:02;4.82;;;4.00;;
8353;SDS011;4656;48.090;11.498;2023-05-29T07:25:04;6.03;;;3.83;;
8353;SDS011;4656;48.090;11.498;2023-05-29T07:27:08;5.15;;;3.80;;
8353;SDS011;4656;48.090;11.498;2023-05-29T07:29:11;6.35;;;3.70;;
8353;SDS011;4656;48.090;11.498;2023-05-29T07:31:23;5.20;;;3.90;;
8353;SDS011;4656;48.090;11.498;2023-05-29T07:33:25;6.63;;;4.00;;
8353;SDS011;4656;48.090;11.498;2023-05-29T07:35:27;4.80;;;3.85;;
8353;SDS011;4656;48.090;11.498;2023-05-29T07:37:34;5.70;;;4.20;;
8353;SDS011;4656;48.090;11.498;2023-05-29T07:39:36;5.30;;;4.33;;
8353;SDS011;4656;48.090;11.498;2023-05-29T07:41:40;5.65;;;3.92;;
8353;SDS011;4656;48.090;11.498;2023-05-29T07:43:44;5.77;;;3.97;;
8353;SDS011;4656;48.090;11.498;2023-05-29T07:45:51;5.90;;;3.97;;
8353;SDS011;4656;48.090;11.498;2023-05-29T07:47:53;5.28;;;4.00;;
8353;SDS011;4656;48.090;11.498;2023-05-29T07:49:55;5.38;;;4.10;;
8353;SDS011;4656;48.090;11.498;2023-05-29T07:51:57;5.30;;;3.92;;
8353;SDS011;4656;48.090;11.498;2023-05-29T07:54:00;6.73;;;3.93;;
8353;SDS011;4656;48.090;11.498;2023-05-29T07:56:02;5.30;;;4.20;;
8353;SDS011;4656;48.090;11.498;2023-05-29T07:58:05;6.70;;;4.00;;
8353;SDS011;4656;48.090;11.498;2023-05-29T08:00:11;6.20;;;4.43;;
8353;SDS011;4656;48.090;11.498;2023-05-29T08:02:13;6.93;;;4.05;;
8353;SDS011;4656;48.090;11.498;2023-05-29T08:04:16;5.10;;;4.20;;
8353;SDS011;4656;48.090;11.498;2023-05-29T08:06:18;6.95;;;4.00;;
8353;SDS011;4656;48.090;11.498;2023-05-29T08:08:21;6.07;;;4.30;;
8353;SDS011;4656;48.090;11.498;2023-05-29T08:10:23;7.43;;;4.22;;
8353;SDS011;4656;48.090;11.498;2023-05-29T08:12:25;5.50;;;4.43;;
8353;SDS011;4656;48.090;11.498;2023-05-29T08:14:27;6.50;;;4.40;;
8353;SDS011;4656;48.090;11.498;2023-05-29T08:16:31;7.97;;;4.00;;
8353;SDS011;4656;48.090;11.498;2023-05-29T08:18:33;4.63;;;3.87;;
8353;SDS011;4656;48.090;11.498;2023-05-29T08:20:36;6.15;;;4.18;;
8353;SDS011;4656;48.090;11.498;2023-05-29T08:22:41;5.90;;;4.20;;
8353;SDS011;4656;48.090;11.498;2023-05-29T08:24:43;5.70;;;4.13;;
8353;SDS011;4656;48.090;11.498;2023-05-29T08:26:46;5.40;;;4.40;;
8353;SDS011;4656;48.090;11.498;2023-05-29T08:28:48;7.45;;;4.40;;
8353;SDS011;4656;48.090;11.498;2023-05-29T08:30:50;5.95;;;4.65;;
8353;SDS011;4656;48.090;11.498;2023-05-29T08:32:54;8.13;;;4.30;;
8353;SDS011;4656;48.090;11.498;2023-05-29T08:34:56;6.77;;;4.30;;
8353;SDS011;4656;48.090;11.498;2023-05-29T08:36:58;7.18;;;4.47;;
8353;SDS011;4656;48.090;11.498;2023-05-29T08:39:00;7.32;;;4.43;;
8353;SDS011;4656;48.090;11.498;2023-05-29T08:41:02;6.22;;;4.35;;
8353;SDS011;4656;48.090;11.498;2023-05-29T08:43:06;6.70;;;4.43;;
8353;SDS011;4656;48.090;11.498;2023-05-29T08:45:12;6.57;;;4.28;;
8353;SDS011;4656;48.090;11.498;2023-05-29T08:47:16;6.43;;;4.78;;
8353;SDS011;4656;48.090;11.498;2023-05-29T08:49:22;6.03;;;4.68;;
8353;SDS011;4656;48.090;11.498;2023-05-29T08:51:24;6.75;;;4.22;;
8353;SDS011;4656;48.090;11.498;2023-05-29T08:53:31;5.72;;;4.13;;
8353;SDS011;4656;48.090;11.498;2023-05-29T08:55:33;7.32;;;4.15;;
8353;SDS011;4656;48.090;11.498;2023-05-29T08:57:36;6.23;;;4.50;;
8353;SDS011;4656;48.090;11.498;2023-05-29T08:59:39;6.70;;;4.53;;
8353;SDS011;4656;48.090;11.498;2023-05-29T09:01:41;5.32;;;4.43;;
8353;SDS011;4656;48.090;11.498;2023-05-29T09:03:43;5.85;;;4.50;;
8353;SDS011;4656;48.090;11.498;2023-05-29T09:05:49;6.20;;;4.18;;
8353;SDS011;4656;48.090;11.498;2023-05-29T09:07:51;6.57;;;4.33;;
8353;SDS011;4656;48.090;11.498;2023-05-29T09:09:53;7.83;;;4.93;;
8353;SDS011;4656;48.090;11.498;2023-05-29T09:11:55;5.65;;;4.40;;
8353;SDS011;4656;48.090;11.498;2023-05-29T09:13:59;5.97;;;4.23;;
8353;SDS011;4656;48.090;11.498;2023-05-29T09:16:02;6.85;;;4.50;;
8353;SDS011;4656;48.090;11.498;2023-05-29T09:18:06;6.93;;;4.53;;
8353;SDS011;4656;48.090;11.498;2023-05-29T09:20:14;7.23;;;4.60;;
8353;SDS011;4656;48.090;11.498;2023-05-29T09:22:19;6.80;;;4.40;;
8353;SDS011;4656;48.090;11.498;2023-05-29T09:24:23;5.40;;;4.13;;
8353;SDS011;4656;48.090;11.498;2023-05-29T09:26:25;6.10;;;4.38;;
8353;SDS011;4656;48.090;11.498;2023-05-29T09:28:28;5.78;;;4.00;;
8353;SDS011;4656;48.090;11.498;2023-05-29T09:30:34;6.15;;;4.00;;
8353;SDS011;4656;48.090;11.498;2023-05-29T09:32:36;8.43;;;4.18;;
8353;SDS011;4656;48.090;11.498;2023-05-29T09:34:41;5.38;;;4.20;;
8353;SDS011;4656;48.090;11.498;2023-05-29T09:36:43;6.00;;;4.22;;
8353;SDS011;4656;48.090;11.498;2023-05-29T09:38:46;7.95;;;4.35;;
8353;SDS011;4656;48.090;11.498;2023-05-29T09:40:49;4.80;;;3.72;;
8353;SDS011;4656;48.090;11.498;2023-05-29T09:42:51;5.25;;;3.83;;
8353;SDS011;4656;48.090;11.498;2023-05-29T09:44:55;6.28;;;4.10;;
8353;SDS011;4656;48.090;11.498;2023-05-29T09:46:58;4.57;;;3.92;;
8353;SDS011;4656;48.090;11.498;2023-05-29T09:49:01;13.05;;;4.10;;
8353;SDS011;4656;48.090;11.498;2023-05-29T09:51:03;5.55;;;3.95;;
8353;SDS011;4656;48.090;11.498;2023-05-29T09:53:07;5.10;;;3.45;;
8353;SDS011;4656;48.090;11.498;2023-05-29T09:55:20;5.00;;;3.75;;
8353;SDS011;4656;48.090;11.498;2023-05-29T09:57:22;5.68;;;3.67;;
8353;SDS011;4656;48.090;11.498;2023-05-29T09:59:25;6.32;;;3.97;;
8353;SDS011;4656;48.090;11.498;2023-05-29T10:01:27;5.20;;;3.73;;
8353;SDS011;4656;48.090;11.498;2023-05-29T10:03:29;4.65;;;3.47;;
8353;SDS011;4656;48.090;11.498;2023-05-29T10:05:34;5.45;;;3.78;;
8353;SDS011;4656;48.090;11.498;2023-05-29T10:07:38;5.63;;;3.97;;
8353;SDS011;4656;48.090;11.498;2023-05-29T10:09:44;5.38;;;3.70;;
8353;SDS011;4656;48.090;11.498;2023-05-29T10:11:48;4.50;;;3.80;;
8353;SDS011;4656;48.090;11.498;2023-05-29T10:13:53;6.90;;;4.10;;
8353;SDS011;4656;48.090;11.498;2023-05-29T10:15:56;6.20;;;4.25;;
8353;SDS011;4656;48.090;11.498;2023-05-29T10:18:03;6.05;;;3.72;;
8353;SDS011;4656;48.090;11.498;2023-05-29T10:20:06;5.10;;;4.00;;
8353;SDS011;4656;48.090;11.498;2023-05-29T10:22:12;5.63;;;4.00;;
8353;SDS011;4656;48.090;11.498;2023-05-29T10:24:15;4.90;;;3.60;;
8353;SDS011;4656;48.090;11.498;2023-05-29T10:26:20;4.95;;;3.58;;
8353;SDS011;4656;48.090;11.498;2023-05-29T10:28:24;6.32;;;4.03;;
8353;SDS011;4656;48.090;11.498;2023-05-29T10:30:29;5.47;;;3.53;;
8353;SDS011;4656;48.090;11.498;2023-05-29T10:32:36;5.97;;;3.50;;
8353;SDS011;4656;48.090;11.498;2023-05-29T10:34:41;6.63;;;3.83;;
8353;SDS011;4656;48.090;11.498;2023-05-29T10:36:47;5.80;;;3.90;;
8353;SDS011;4656;48.090;11.498;2023-05-29T10:38:50;5.78;;;3.85;;
8353;SDS011;4656;48.090;11.498;2023-05-29T10:40:53;6.63;;;3.70;;
8353;SDS011;4656;48.090;11.498;2023-05-29T10:42:55;4.65;;;3.80;;
8353;SDS011;4656;48.090;11.498;2023-05-29T10:45:00;4.25;;;3.45;;
8353;SDS011;4656;48.090;11.498;2023-05-29T10:47:04;4.95;;;3.70;;
8353;SDS011;4656;48.090;11.498;2023-05-29T10:49:06;5.95;;;3.72;;
8353;SDS011;4656;48.090;11.498;2023-05-29T10:51:24;6.82;;;3.90;;
8353;SDS011;4656;48.090;11.498;2023-05-29T10:53:26;5.00;;;3.50;;
8353;SDS011;4656;48.090;11.498;2023-05-29T10:55:33;4.55;;;3.60;;
8353;SDS011;4656;48.090;11.498;2023-05-29T10:57:36;5.13;;;3.63;;
8353;SDS011;4656;48.090;11.498;2023-05-29T10:59:38;5.13;;;3.90;;
8353;SDS011;4656;48.090;11.498;2023-05-29T11:01:41;5.60;;;3.50;;
8353;SDS011;4656;48.090;11.498;2023-05-29T11:03:44;6.35;;;3.80;;
8353;SDS011;4656;48.090;11.498;2023-05-29T11:05:55;5.38;;;3.47;;
8353;SDS011;4656;48.090;11.498;2023-05-29T11:07:58;6.30;;;3.22;;
8353;SDS011;4656;48.090;11.498;2023-05-29T11:10:10;4.80;;;3.58;;
8353;SDS011;4656;48.090;11.498;2023-05-29T11:12:13;5.00;;;3.60;;
8353;SDS011;4656;48.090;11.498;2023-05-29T11:14:23;5.55;;;3.55;;
8353;SDS011;4656;48.090;11.498;2023-05-29T11:16:35;4.50;;;3.42;;
8353;SDS011;4656;48.090;11.498;2023-05-29T11:18:39;6.47;;;3.70;;
8353;SDS011;4656;48.090;11.498;2023-05-29T11:20:43;5.22;;;3.67;;
8353;SDS011;4656;48.090;11.498;2023-05-29T11:25:03;4.30;;;3.30;;
8353;SDS011;4656;48.090;11.498;2023-05-29T11:27:06;5.22;;;3.47;;
8353;SDS011;4656;48.090;11.498;2023-05-29T11:29:08;4.93;;;3.38;;
8353;SDS011;4656;48.090;11.498;2023-05-29T11:31:13;4.55;;;3.65;;
8353;SDS011;4656;48.090;11.498;2023-05-29T11:33:19;4.35;;;3.20;;
8353;SDS011;4656;48.090;11.498;2023-05-29T11:35:25;4.93;;;3.67;;
8353;SDS011;4656;48.090;11.498;2023-05-29T11:37:27;5.50;;;3.67;;
8353;SDS011;4656;48.090;11.498;2023-05-29T11:39:35;5.28;;;3.70;;
8353;SDS011;4656;48.090;11.498;2023-05-29T11:41:37;5.63;;;3.85;;
8353;SDS011;4656;48.090;11.498;2023-05-29T11:43:39;5.43;;;3.45;;
8353;SDS011;4656;48.090;11.498;2023-05-29T11:45:41;5.30;;;3.47;;
8353;SDS011;4656;48.090;11.498;2023-05-29T11:47:50;4.25;;;3.50;;
8353;SDS011;4656;48.090;11.498;2023-05-29T11:49:52;6.83;;;4.07;;
8353;SDS011;4656;48.090;11.498;2023-05-29T11:51:55;5.68;;;3.67;;
8353;SDS011;4656;48.090;11.498;2023-05-29T11:54:06;4.68;;;3.42;;
8353;SDS011;4656;48.090;11.498;2023-05-29T11:56:10;3.90;;;3.33;;
8353;SDS011;4656;48.090;11.498;2023-05-29T11:58:12;4.13;;;3.40;;
8353;SDS011;4656;48.090;11.498;2023-05-29T12:00:16;5.75;;;3.88;;
8353;SDS011;4656;48.090;11.498;2023-05-29T12:02:19;4.63;;;3.38;;
8353;SDS011;4656;48.090;11.498;2023-05-29T12:04:22;5.20;;;3.30;;
8353;SDS011;4656;48.090;11.498;2023-05-29T12:06:31;5.47;;;3.70;;
8353;SDS011;4656;48.090;11.498;2023-05-29T12:08:35;5.55;;;3.55;;
8353;SDS011;4656;48.090;11.498;2023-05-29T12:10:40;5.80;;;3.38;;
8353;SDS011;4656;48.090;11.498;2023-05-29T12:12:49;5.70;;;3.50;;
8353;SDS011;4656;48.090;11.498;2023-05-29T12:14:52;5.97;;;3.60;;
8353;SDS011;4656;48.090;11.498;2023-05-29T12:16:54;4.72;;;3.70;;
8353;SDS011;4656;48.090;11.498;2023-05-29T12:18:56;5.32;;;3.88;;
8353;SDS011;4656;48.090;11.498;2023-05-29T12:20:59;5.15;;;3.33;;
8353;SDS011;4656;48.090;11.498;2023-05-29T12:23:02;5.60;;;3.78;;
8353;SDS011;4656;48.090;11.498;2023-05-29T12:25:09;5.15;;;3.20;;
8353;SDS011;4656;48.090;11.498;2023-05-29T12:27:14;6.75;;;3.75;;
8353;SDS011;4656;48.090;11.498;2023-05-29T12:29:16;6.07;;;3.40;;
8353;SDS011;4656;48.090;11.498;2023-05-29T12:31:28;6.15;;;3.15;;
8353;SDS011;4656;48.090;11.498;2023-05-29T12:33:32;4.85;;;3.70;;
8353;SDS011;4656;48.090;11.498;2023-05-29T12:35:34;6.95;;;3.47;;
8353;SDS011;4656;48.090;11.498;2023-05-29T12:37:36;4.45;;;3.28;;